Sonnenkopf, Austria
Current Conditions -  °F | °C
As of 10:50 AM on Thursday 23 Oct 2014 (Local Time) from LSZR Reporting Station
Broken Clouds Broken Clouds  
Wind Chill: 42°   Ceiling: 6000
Heat Index: 46°   Visibility: 6mi
Dew Point: 39°   Wind: 9mph
Humidity: 76%   Direction: 260°W
Pressure: 30.27"   Gusts: NA
Location:  47.13°N, 10.06°E
Report Text: LSZR 230850Z 26008KT 220V290 9999 FEW030 BKN060 08/04 Q1025 NOSIG RMK F
Loading
Personal Weather Stations






























Interactive Weather Map
Tropical Storm Tracking
New forecast layout! Learn more

10-Day Weather Forecast

Advertisements
Track Severe Weather on mobile